Logo AVAMET
Benvolgut visitant, si us plau, ingressa Recuperar contrasenya
AVAMET paisatges

Inforatge Moixent

Dades diàries. Acumulats / Últims 30 dies disponibles

Data Temperatura (°C) Humitat rel. (%) Pressió rel. (hPa) Vent (km/h) Precipitació
Mínima Mitjana Màxima Amplitud
tèrmica
Mínima Mitjana Màxima Mínima Mitjana Màxima Predom. Mitjana Ràfega
màxima
Total
(mm)
Índex-n
Mínima Mitjana Màxima Mínima Mitjana Màxima n
0 a 1
P0 max
mm 5'
Dades mensuals acumulades fins l'últim dia disponible
06/2020 14,3 15,7 16,7 22,3 25,3 30,0 32,9 18,6 19 63 96 1.001 1.009 1.015   6,9 53,1 1,4
Dades anuals acumulades fins l'últim dia disponible
2020 1,1 9,7 17,3 14,1 6,8 19,6 33,8 32,7 12 72 97 1.001 1.018 1.034   6,2 74,0 397,8
Últims 30 dies disponibles
04-06-2020 16,7     19,9     25,3 8,6 39 68 91 1.001 1.004 1.008 WSW 10,0 53,1 1,4
03-06-2020 14,3     24,2     32,9 18,6 24 52 94 1.001 1.006 1.012 WSW 6,9 32,2 0,0
02-06-2020 15,7     22,3     31,9 16,2 19 67 96 1.010 1.013 1.015 WSW 5,5 27,4 0,0
01-06-2020 16,0     22,6     29,8 13,8 34 66 94 1.011 1.012 1.014 NNE 5,1 22,5 0,0
31-05-2020 12,1     20,7     30,3 18,2 22 59 86 1.009 1.011 1.014 S 5,3 29,0 0,0
30-05-2020 12,8     20,8     29,2 16,4 24 59 90 1.010 1.013 1.015 S 4,7 27,4 0,0
29-05-2020 12,7     21,1     29,1 16,4 25 57 91 1.011 1.015 1.020 SSW 4,3 20,9 0,0
28-05-2020 16,6     20,2     24,9 8,3 41 73 97 1.019 1.022 1.024 ENE 6,3 29,0 0,0
27-05-2020 13,2     19,3     25,7 12,5 37 70 97 1.022 1.023 1.024 NE 7,1 35,4 0,0
26-05-2020 14,9     19,3     24,9 10,0 49 76 97 1.022 1.023 1.025 WSW 4,8 30,6 0,6
25-05-2020 15,1     18,6     21,8 6,7 62 79 97 1.022 1.024 1.025 SSW 3,9 24,1 0,0
24-05-2020 17,3     20,4     24,7 7,4 64 82 97 1.024 1.025 1.026 ENE 5,6 25,7 0,0
23-05-2020 15,4     23,5     33,8 18,4 23 57 87 1.020 1.022 1.024 WSW 6,0 24,1 0,0
22-05-2020 15,8     23,7     31,7 15,9 35 58 79 1.018 1.020 1.023 SSW 4,8 25,7 0,0
21-05-2020 14,7     22,9     31,4 16,7 31 61 88 1.015 1.017 1.019 SW 4,5 22,5 0,0
20-05-2020 14,8     22,7     32,2 17,4 26 59 86 1.011 1.013 1.016 WSW 4,8 19,3 0,0
19-05-2020 13,9     22,2     31,4 17,5 19 57 87 1.012 1.015 1.019 WSW 6,1 30,6 0,0
18-05-2020 13,2     20,1     28,5 15,3 23 63 93 1.015 1.018 1.021 SW 4,7 24,1 0,0
17-05-2020 14,1     16,9     21,5 7,4 55 81 97 1.017 1.019 1.021 SSW 4,3 22,5 0,4
16-05-2020 13,7     15,3     17,9 4,2 75 94 97 1.013 1.015 1.018 SW 2,4 16,1 12,0 0,31 1,30
15-05-2020 10,1     14,1     17,9 7,8 55 84 97 1.009 1.011 1.014 SW 3,4 19,3 5,6 0,42 0,40
14-05-2020 11,7     14,4     18,5 6,8 51 73 95 1.002 1.005 1.009 WSW 7,7 37,0 15,8 0,21 0,80
13-05-2020 11,7     16,3     22,8 11,1 37 64 94 1.002 1.004 1.006 WSW 9,0 32,2 3,6 0,57 2,00
12-05-2020 13,9     16,9     22,3 8,4 48 73 93 1.005 1.007 1.010 WSW 4,8 30,6 2,6 0,39 0,60
11-05-2020 14,8     18,9     24,3 9,5 35 55 73 1.006 1.007 1.010 WSW 13,5 49,9 0,0
10-05-2020 13,6     17,8     21,9 8,3 34 63 89 1.003 1.005 1.007 WSW 11,6 53,1 2,6
09-05-2020 15,3     19,5     25,1 9,8 56 79 97 1.006 1.010 1.014 NNE 5,1 25,7 0,0
08-05-2020 15,6     18,6     22,6 7,0 59 80 97 1.012 1.014 1.017 ENE 5,6 27,4 0,0
07-05-2020 13,8     18,9     24,1 10,3 45 72 95 1.015 1.016 1.017 S 5,5 27,4 0,0
06-05-2020 14,9     21,0     27,7 12,8 38 68 95 1.013 1.014 1.016 NE 5,1 24,1 0,0
Últims 13 mesos disponibles
05/2020 10,1 14,3 17,3 19,8 17,9 26,2 33,8 23,7 49 67 94 1.004 1.015 1.025 WSW 6,0 53,1 43,2
04/2020 6,4 11,3 15,2 14,8 15,3 19,4 24,0 17,6 53 78 97 1.005 1.014 1.023 WSW 5,4 51,5 62,0
03/2020 3,5 8,6 14,6 12,4 6,8 16,7 27,6 24,1 42 73 97 1.006 1.016 1.024 WSW 7,1 74,0 110,8
02/2020 3,8 8,5 12,2 13,7 12,9 20,4 26,0 22,2 35 66 97 1.013 1.024 1.031 WSW 6,2 54,7 6,2
01/2020 1,1 5,1 11,8 8,9 7,0 14,2 18,9 17,8 57 76 97 1.014 1.024 1.031 WSW 6,3 57,9 174,2
12/2019 3,5 8,1 16,1 11,8 10,3 16,2 23,3 19,8 53 73 97 1.001 1.018 1.031 WSW 8,2 78,9 107,6
11/2019 2,7 9,5 18,9 13,2 12,6 17,1 25,2 22,5 48 60 86 998 1.010 1.017 WSW 10,4 64,4 8,4
10/2019 8,6 14,0 18,9 18,6 14,8 24,5 32,4 23,8 44 68 91 1.007 1.015 1.021 WSW 5,5 37,0 32,8
09/2019 13,3 17,5 22,1 21,7 18,6 27,1 34,8 21,5 41 74 96 1.009 1.016 1.022 ENE 5,4 53,7 196,0
08/2019 15,6 19,7 24,3 25,8 26,2 33,1 40,8 25,2 32 65 87 1.008 1.014 1.018 ESE 5,6 40,7 16,8
07/2019 17,7 20,5 25,6 26,6 26,8 33,8 41,9 24,2 37 60 81 1.005 1.012 1.019 4,6 51,9 3,4
06/2019 9,9 14,6 18,9 21,9 21,1 28,9 34,9 25,0 33 55 81 1.011 1.017 1.023 SE 5,3 51,9 0,6
05/2019 7,0 11,5 18,1 17,8 19,9 25,1 30,3 23,3 47 63 92 1.008 1.016 1.026 SSE 4,7 48,3 14,8
Tots els anys disponibles
2019 -2,3 11,7 25,6 17,0 9,6 23,1 41,9 44,2 25 64 97 998 1.017 1.034 WSW 5,8 78,9 552,2
Temperatura (°C)
Humitat relativa (%)
Velocitat del vent i ràfega màxima (km/h)
Direcció del vent (°)
Pressió (hPa)
Precipitació (mm)
Nota sobre les dades: s'avisa a l'usuari de la provisionalitat i no oficialitat d'aquestes dades
Logo AVAMET blanc
Web allotjada a Sollutia
Llicència de Creative CommonsLa web d'AVAMET i els seus continguts estan subjectes a una llicència de
Reconeixement - No Comercial - Compartir igual
Últimes estacions: Biar - IES Biar (Soci), Xodos - la Vega (Soci), la Vall d'Alba - Centre (Ajuntament soci), Chera (Ajuntament soci) - - -